sensor_id;sensor_type;location;lat;lon;timestamp;pressure;altitude;pressure_sealevel;temperature;humidity
740;BME280;354;42.694;23.336;2023-04-07T00:00:22;95005.06;;;3.02;93.72
740;BME280;354;42.694;23.336;2023-04-07T00:02:47;94999.25;;;3.00;93.45
740;BME280;354;42.694;23.336;2023-04-07T00:05:13;95007.09;;;2.92;95.04
740;BME280;354;42.694;23.336;2023-04-07T00:07:39;95010.47;;;2.92;94.02
740;BME280;354;42.694;23.336;2023-04-07T00:10:05;95006.91;;;2.93;94.64
740;BME280;354;42.694;23.336;2023-04-07T00:12:31;94998.59;;;2.98;93.15
740;BME280;354;42.694;23.336;2023-04-07T00:14:56;95003.53;;;2.84;95.63
740;BME280;354;42.694;23.336;2023-04-07T00:17:21;95004.19;;;2.78;98.91
740;BME280;354;42.694;23.336;2023-04-07T00:19:47;94993.25;;;2.60;98.68
740;BME280;354;42.694;23.336;2023-04-07T00:22:12;94999.06;;;2.62;98.37
740;BME280;354;42.694;23.336;2023-04-07T00:24:37;95002.16;;;2.66;100.00
740;BME280;354;42.694;23.336;2023-04-07T00:27:03;94999.09;;;2.54;100.00
740;BME280;354;42.694;23.336;2023-04-07T00:29:28;94971.72;;;2.43;100.00
740;BME280;354;42.694;23.336;2023-04-07T00:31:54;95000.94;;;2.37;100.00
740;BME280;354;42.694;23.336;2023-04-07T00:34:20;94998.38;;;2.13;100.00
740;BME280;354;42.694;23.336;2023-04-07T00:36:45;95000.53;;;1.93;100.00
740;BME280;354;42.694;23.336;2023-04-07T00:39:16;95008.47;;;1.83;100.00
740;BME280;354;42.694;23.336;2023-04-07T00:41:41;94996.13;;;1.61;100.00
740;BME280;354;42.694;23.336;2023-04-07T00:44:07;95010.22;;;1.58;100.00
740;BME280;354;42.694;23.336;2023-04-07T00:46:32;95011.84;;;1.51;100.00
740;BME280;354;42.694;23.336;2023-04-07T00:48:57;95002.44;;;1.34;100.00
740;BME280;354;42.694;23.336;2023-04-07T00:51:23;95007.78;;;1.32;100.00
740;BME280;354;42.694;23.336;2023-04-07T00:53:49;95008.50;;;1.08;100.00
740;BME280;354;42.694;23.336;2023-04-07T00:56:14;94991.78;;;0.78;100.00
740;BME280;354;42.694;23.336;2023-04-07T00:58:40;95005.06;;;0.91;100.00
740;BME280;354;42.694;23.336;2023-04-07T01:01:09;95005.56;;;0.95;100.00
740;BME280;354;42.694;23.336;2023-04-07T01:04:02;95006.16;;;0.81;100.00
740;BME280;354;42.694;23.336;2023-04-07T01:06:33;95007.78;;;0.82;100.00
740;BME280;354;42.694;23.336;2023-04-07T01:09:10;94998.91;;;0.84;100.00
740;BME280;354;42.694;23.336;2023-04-07T01:11:43;95001.66;;;0.83;100.00
740;BME280;354;42.694;23.336;2023-04-07T01:14:14;94966.66;;;0.70;100.00
740;BME280;354;42.694;23.336;2023-04-07T01:16:47;94996.59;;;0.73;100.00
740;BME280;354;42.694;23.336;2023-04-07T01:21:59;95000.53;;;0.85;100.00
740;BME280;354;42.694;23.336;2023-04-07T01:30:16;94979.13;;;0.75;100.00
740;BME280;354;42.694;23.336;2023-04-07T01:32:44;94995.03;;;0.88;100.00
740;BME280;354;42.694;23.336;2023-04-07T01:35:12;95000.09;;;1.06;100.00
740;BME280;354;42.694;23.336;2023-04-07T01:37:38;94992.34;;;1.06;100.00
740;BME280;354;42.694;23.336;2023-04-07T01:40:06;94995.75;;;1.15;100.00
740;BME280;354;42.694;23.336;2023-04-07T01:42:33;94977.28;;;1.10;100.00
740;BME280;354;42.694;23.336;2023-04-07T01:45:00;94982.31;;;1.19;100.00
740;BME280;354;42.694;23.336;2023-04-07T01:47:27;94986.84;;;1.25;100.00
740;BME280;354;42.694;23.336;2023-04-07T01:49:57;94991.69;;;1.20;100.00
740;BME280;354;42.694;23.336;2023-04-07T01:52:26;94985.38;;;1.15;100.00
740;BME280;354;42.694;23.336;2023-04-07T01:54:53;94992.19;;;1.16;100.00
740;BME280;354;42.694;23.336;2023-04-07T01:57:19;94993.66;;;1.18;100.00
740;BME280;354;42.694;23.336;2023-04-07T01:59:44;94988.31;;;1.20;100.00
740;BME280;354;42.694;23.336;2023-04-07T02:02:09;94979.88;;;1.26;100.00
740;BME280;354;42.694;23.336;2023-04-07T02:04:56;94976.97;;;1.37;100.00
740;BME280;354;42.694;23.336;2023-04-07T02:07:34;94973.13;;;1.33;100.00
740;BME280;354;42.694;23.336;2023-04-07T02:10:05;94979.25;;;1.24;100.00
740;BME280;354;42.694;23.336;2023-04-07T02:12:31;94972.81;;;1.44;100.00
740;BME280;354;42.694;23.336;2023-04-07T02:14:58;94974.59;;;1.44;100.00
740;BME280;354;42.694;23.336;2023-04-07T02:17:26;94975.38;;;1.36;100.00
740;BME280;354;42.694;23.336;2023-04-07T02:19:52;94978.31;;;1.49;100.00
740;BME280;354;42.694;23.336;2023-04-07T02:22:18;94982.84;;;1.55;100.00
740;BME280;354;42.694;23.336;2023-04-07T02:24:43;94957.56;;;1.74;100.00
740;BME280;354;42.694;23.336;2023-04-07T02:27:09;94977.00;;;1.94;100.00
740;BME280;354;42.694;23.336;2023-04-07T02:29:34;94972.78;;;2.01;100.00
740;BME280;354;42.694;23.336;2023-04-07T02:31:59;94968.38;;;2.02;100.00
740;BME280;354;42.694;23.336;2023-04-07T02:34:25;94981.00;;;2.13;100.00
740;BME280;354;42.694;23.336;2023-04-07T02:36:50;94980.69;;;2.16;100.00
740;BME280;354;42.694;23.336;2023-04-07T02:39:16;94979.41;;;2.20;100.00
740;BME280;354;42.694;23.336;2023-04-07T02:41:41;94978.25;;;2.23;100.00
740;BME280;354;42.694;23.336;2023-04-07T02:44:07;94983.75;;;2.20;100.00
740;BME280;354;42.694;23.336;2023-04-07T02:46:32;94957.56;;;1.98;100.00
740;BME280;354;42.694;23.336;2023-04-07T02:48:58;94972.44;;;2.13;100.00
740;BME280;354;42.694;23.336;2023-04-07T02:51:23;94980.22;;;2.13;100.00
740;BME280;354;42.694;23.336;2023-04-07T02:53:48;94982.97;;;2.11;100.00
740;BME280;354;42.694;23.336;2023-04-07T02:56:15;94981.81;;;2.22;100.00
740;BME280;354;42.694;23.336;2023-04-07T02:58:40;94981.16;;;2.20;100.00
740;BME280;354;42.694;23.336;2023-04-07T03:01:06;94986.66;;;2.33;100.00
740;BME280;354;42.694;23.336;2023-04-07T03:03:31;94987.16;;;2.36;100.00
740;BME280;354;42.694;23.336;2023-04-07T03:05:57;94989.38;;;2.48;100.00
740;BME280;354;42.694;23.336;2023-04-07T03:08:22;94985.81;;;2.49;100.00
740;BME280;354;42.694;23.336;2023-04-07T03:10:47;94981.25;;;2.51;100.00
740;BME280;354;42.694;23.336;2023-04-07T03:13:13;94981.44;;;2.41;100.00
740;BME280;354;42.694;23.336;2023-04-07T03:15:41;94963.63;;;2.30;100.00
740;BME280;354;42.694;23.336;2023-04-07T03:18:07;94969.78;;;2.29;100.00
740;BME280;354;42.694;23.336;2023-04-07T03:20:32;94975.97;;;2.28;100.00
740;BME280;354;42.694;23.336;2023-04-07T03:22:57;94978.56;;;2.28;100.00
740;BME280;354;42.694;23.336;2023-04-07T03:25:24;94958.16;;;2.08;100.00
740;BME280;354;42.694;23.336;2023-04-07T03:27:49;94977.78;;;2.03;100.00
740;BME280;354;42.694;23.336;2023-04-07T03:30:15;94962.72;;;1.90;100.00
740;BME280;354;42.694;23.336;2023-04-07T03:32:40;94948.66;;;1.68;100.00
740;BME280;354;42.694;23.336;2023-04-07T03:35:06;94961.47;;;1.62;100.00
740;BME280;354;42.694;23.336;2023-04-07T03:37:31;94966.66;;;1.62;100.00
740;BME280;354;42.694;23.336;2023-04-07T03:39:57;94964.22;;;1.60;100.00
740;BME280;354;42.694;23.336;2023-04-07T03:42:22;94973.78;;;1.76;100.00
740;BME280;354;42.694;23.336;2023-04-07T03:44:47;94963.88;;;1.79;100.00
740;BME280;354;42.694;23.336;2023-04-07T03:47:13;94984.13;;;2.00;100.00
740;BME280;354;42.694;23.336;2023-04-07T03:49:38;94971.16;;;2.00;100.00
740;BME280;354;42.694;23.336;2023-04-07T03:52:04;94979.56;;;2.02;100.00
740;BME280;354;42.694;23.336;2023-04-07T03:54:29;94977.97;;;2.01;100.00
740;BME280;354;42.694;23.336;2023-04-07T03:56:55;94980.22;;;2.04;100.00
740;BME280;354;42.694;23.336;2023-04-07T03:59:21;94973.44;;;2.03;100.00
740;BME280;354;42.694;23.336;2023-04-07T04:01:47;94986.88;;;2.07;100.00
740;BME280;354;42.694;23.336;2023-04-07T04:04:12;94982.63;;;2.14;100.00
740;BME280;354;42.694;23.336;2023-04-07T04:06:38;94988.94;;;2.20;100.00
740;BME280;354;42.694;23.336;2023-04-07T04:09:03;94997.72;;;2.27;100.00
740;BME280;354;42.694;23.336;2023-04-07T04:11:28;94997.84;;;2.33;100.00
740;BME280;354;42.694;23.336;2023-04-07T04:13:55;94998.03;;;2.32;100.00
740;BME280;354;42.694;23.336;2023-04-07T04:16:21;95002.38;;;2.40;100.00
740;BME280;354;42.694;23.336;2023-04-07T04:18:46;94987.97;;;2.37;100.00
740;BME280;354;42.694;23.336;2023-04-07T04:21:11;95012.72;;;2.56;100.00
740;BME280;354;42.694;23.336;2023-04-07T04:23:37;95001.69;;;2.54;100.00
740;BME280;354;42.694;23.336;2023-04-07T04:26:02;94999.72;;;2.56;100.00
740;BME280;354;42.694;23.336;2023-04-07T04:28:28;95006.97;;;2.69;100.00
740;BME280;354;42.694;23.336;2023-04-07T04:30:54;95012.53;;;2.66;100.00
740;BME280;354;42.694;23.336;2023-04-07T04:33:19;95003.56;;;2.68;100.00
740;BME280;354;42.694;23.336;2023-04-07T04:35:45;95018.53;;;2.66;100.00
740;BME280;354;42.694;23.336;2023-04-07T04:38:10;95017.22;;;2.62;100.00
740;BME280;354;42.694;23.336;2023-04-07T04:40:36;95025.69;;;2.64;100.00
740;BME280;354;42.694;23.336;2023-04-07T04:43:01;95023.53;;;2.76;100.00
740;BME280;354;42.694;23.336;2023-04-07T04:45:31;95021.56;;;2.86;100.00
740;BME280;354;42.694;23.336;2023-04-07T04:47:56;95011.81;;;2.80;100.00
740;BME280;354;42.694;23.336;2023-04-07T04:50:22;95024.97;;;2.86;100.00
740;BME280;354;42.694;23.336;2023-04-07T04:52:47;95039.00;;;3.08;100.00
740;BME280;354;42.694;23.336;2023-04-07T04:55:12;95032.44;;;3.21;100.00
740;BME280;354;42.694;23.336;2023-04-07T04:57:38;95026.56;;;3.27;100.00
740;BME280;354;42.694;23.336;2023-04-07T05:00:05;95031.69;;;3.35;100.00
740;BME280;354;42.694;23.336;2023-04-07T05:02:31;95038.22;;;3.31;100.00
740;BME280;354;42.694;23.336;2023-04-07T05:04:57;95037.78;;;3.50;100.00
740;BME280;354;42.694;23.336;2023-04-07T05:07:22;95040.56;;;3.72;100.00
740;BME280;354;42.694;23.336;2023-04-07T05:09:48;95036.66;;;3.76;100.00
740;BME280;354;42.694;23.336;2023-04-07T05:12:14;95028.06;;;3.90;100.00
740;BME280;354;42.694;23.336;2023-04-07T05:14:39;95034.53;;;4.17;100.00
740;BME280;354;42.694;23.336;2023-04-07T05:17:05;95047.13;;;4.28;100.00
740;BME280;354;42.694;23.336;2023-04-07T05:19:30;95046.59;;;4.33;100.00
740;BME280;354;42.694;23.336;2023-04-07T05:21:57;95047.25;;;4.64;100.00
740;BME280;354;42.694;23.336;2023-04-07T05:24:25;95040.63;;;5.57;100.00
740;BME280;354;42.694;23.336;2023-04-07T05:26:51;95049.88;;;6.45;100.00
740;BME280;354;42.694;23.336;2023-04-07T05:29:16;95061.66;;;6.63;100.00
740;BME280;354;42.694;23.336;2023-04-07T05:31:42;95064.69;;;6.38;100.00
740;BME280;354;42.694;23.336;2023-04-07T05:34:07;95056.75;;;6.53;100.00
740;BME280;354;42.694;23.336;2023-04-07T05:36:34;95059.81;;;6.56;97.99
740;BME280;354;42.694;23.336;2023-04-07T05:39:00;95061.69;;;6.41;97.40
740;BME280;354;42.694;23.336;2023-04-07T05:41:25;95059.03;;;6.34;94.66
740;BME280;354;42.694;23.336;2023-04-07T05:43:51;95051.72;;;6.23;94.35
740;BME280;354;42.694;23.336;2023-04-07T05:46:16;95054.38;;;6.08;94.29
740;BME280;354;42.694;23.336;2023-04-07T05:48:42;95060.50;;;5.94;96.15
740;BME280;354;42.694;23.336;2023-04-07T05:51:07;95058.00;;;6.07;96.42
740;BME280;354;42.694;23.336;2023-04-07T05:53:33;95054.94;;;6.04;95.19
740;BME280;354;42.694;23.336;2023-04-07T05:55:58;95055.78;;;5.68;99.45
740;BME280;354;42.694;23.336;2023-04-07T05:58:24;95052.75;;;5.86;97.20
740;BME280;354;42.694;23.336;2023-04-07T06:00:49;95060.41;;;6.09;93.55
740;BME280;354;42.694;23.336;2023-04-07T06:03:15;95054.34;;;6.02;93.91
740;BME280;354;42.694;23.336;2023-04-07T06:05:40;95039.19;;;5.76;94.44
740;BME280;354;42.694;23.336;2023-04-07T06:08:08;95058.41;;;6.04;93.51
740;BME280;354;42.694;23.336;2023-04-07T06:10:35;95056.19;;;6.08;92.83
740;BME280;354;42.694;23.336;2023-04-07T06:13:00;95043.88;;;6.23;93.48
740;BME280;354;42.694;23.336;2023-04-07T06:15:26;95056.19;;;6.29;92.76
740;BME280;354;42.694;23.336;2023-04-07T06:17:51;95060.09;;;6.19;91.10
740;BME280;354;42.694;23.336;2023-04-07T06:20:17;95049.41;;;6.14;93.28
740;BME280;354;42.694;23.336;2023-04-07T06:22:44;95053.78;;;6.56;92.78
740;BME280;354;42.694;23.336;2023-04-07T06:25:09;95052.50;;;6.73;91.23
740;BME280;354;42.694;23.336;2023-04-07T06:27:35;95061.66;;;6.97;89.90
740;BME280;354;42.694;23.336;2023-04-07T06:30:00;95041.50;;;6.84;88.27
740;BME280;354;42.694;23.336;2023-04-07T06:32:26;95042.47;;;6.49;88.18
740;BME280;354;42.694;23.336;2023-04-07T06:34:52;95053.63;;;6.64;88.60
740;BME280;354;42.694;23.336;2023-04-07T06:37:17;95042.53;;;6.55;87.68
740;BME280;354;42.694;23.336;2023-04-07T06:39:43;95047.47;;;6.72;87.84
740;BME280;354;42.694;23.336;2023-04-07T06:42:09;95054.22;;;6.59;87.23
740;BME280;354;42.694;23.336;2023-04-07T06:44:34;95057.56;;;6.81;89.12
740;BME280;354;42.694;23.336;2023-04-07T06:47:00;95060.03;;;6.90;87.71
740;BME280;354;42.694;23.336;2023-04-07T06:49:25;95057.78;;;7.21;86.21
740;BME280;354;42.694;23.336;2023-04-07T06:51:51;95050.69;;;7.63;83.51
740;BME280;354;42.694;23.336;2023-04-07T06:54:16;95041.94;;;8.10;79.81
740;BME280;354;42.694;23.336;2023-04-07T06:56:42;95048.41;;;8.81;76.03
740;BME280;354;42.694;23.336;2023-04-07T06:59:08;95051.44;;;8.91;73.67
740;BME280;354;42.694;23.336;2023-04-07T07:01:34;95053.22;;;9.04;73.37
740;BME280;354;42.694;23.336;2023-04-07T07:04:00;95039.47;;;9.15;71.55
740;BME280;354;42.694;23.336;2023-04-07T07:06:26;95054.19;;;9.74;70.17
740;BME280;354;42.694;23.336;2023-04-07T07:08:52;95057.78;;;9.80;67.41
740;BME280;354;42.694;23.336;2023-04-07T07:11:17;95061.66;;;10.09;66.44
740;BME280;354;42.694;23.336;2023-04-07T07:13:43;95062.47;;;9.71;68.11
740;BME280;354;42.694;23.336;2023-04-07T07:16:10;95055.28;;;9.91;68.05
740;BME280;354;42.694;23.336;2023-04-07T07:18:37;95060.69;;;10.03;66.46
740;BME280;354;42.694;23.336;2023-04-07T07:21:03;95069.50;;;9.84;67.00
740;BME280;354;42.694;23.336;2023-04-07T07:23:28;95079.56;;;10.25;67.08
740;BME280;354;42.694;23.336;2023-04-07T07:25:53;95075.84;;;10.01;63.64
740;BME280;354;42.694;23.336;2023-04-07T07:28:19;95059.38;;;9.81;66.10
740;BME280;354;42.694;23.336;2023-04-07T07:30:46;95076.03;;;10.06;64.43
740;BME280;354;42.694;23.336;2023-04-07T07:33:11;95077.41;;;10.09;64.20
740;BME280;354;42.694;23.336;2023-04-07T07:35:37;95089.38;;;9.60;63.27
740;BME280;354;42.694;23.336;2023-04-07T07:38:02;95068.81;;;9.57;63.15
740;BME280;354;42.694;23.336;2023-04-07T07:40:28;95082.25;;;9.73;64.84
740;BME280;354;42.694;23.336;2023-04-07T07:42:53;95085.13;;;10.03;63.82
740;BME280;354;42.694;23.336;2023-04-07T07:45:19;95065.38;;;9.94;62.66
740;BME280;354;42.694;23.336;2023-04-07T07:47:44;95066.38;;;10.32;62.56
740;BME280;354;42.694;23.336;2023-04-07T07:50:10;95084.97;;;10.87;58.24
740;BME280;354;42.694;23.336;2023-04-07T07:52:35;95072.19;;;10.40;55.21
740;BME280;354;42.694;23.336;2023-04-07T07:55:01;95078.63;;;10.69;54.44
740;BME280;354;42.694;23.336;2023-04-07T07:57:27;95057.03;;;11.29;51.75
740;BME280;354;42.694;23.336;2023-04-07T07:59:52;95074.09;;;10.26;51.30
740;BME280;354;42.694;23.336;2023-04-07T08:02:17;95085.16;;;10.67;51.14
740;BME280;354;42.694;23.336;2023-04-07T08:04:43;95077.22;;;10.92;50.67
740;BME280;354;42.694;23.336;2023-04-07T08:07:08;95055.84;;;11.06;51.13
740;BME280;354;42.694;23.336;2023-04-07T08:09:36;95079.56;;;10.57;49.61
740;BME280;354;42.694;23.336;2023-04-07T08:12:02;95085.69;;;10.50;49.58
740;BME280;354;42.694;23.336;2023-04-07T08:14:28;95078.22;;;10.72;49.06
740;BME280;354;42.694;23.336;2023-04-07T08:16:53;95085.94;;;10.92;48.54
740;BME280;354;42.694;23.336;2023-04-07T08:19:19;95080.75;;;11.04;49.03
740;BME280;354;42.694;23.336;2023-04-07T08:21:45;95050.72;;;11.12;48.66
740;BME280;354;42.694;23.336;2023-04-07T08:24:10;95080.13;;;11.45;47.29
740;BME280;354;42.694;23.336;2023-04-07T08:26:35;95071.94;;;11.53;46.41
740;BME280;354;42.694;23.336;2023-04-07T08:29:01;95083.69;;;11.69;46.59
740;BME280;354;42.694;23.336;2023-04-07T08:31:26;95075.31;;;11.60;46.45
740;BME280;354;42.694;23.336;2023-04-07T08:33:52;95076.91;;;11.25;46.44
740;BME280;354;42.694;23.336;2023-04-07T08:36:23;95084.63;;;9.82;48.38
740;BME280;354;42.694;23.336;2023-04-07T08:38:48;95082.88;;;9.69;49.83
740;BME280;354;42.694;23.336;2023-04-07T08:41:18;95082.38;;;9.92;49.21
740;BME280;354;42.694;23.336;2023-04-07T08:43:45;95075.16;;;9.81;50.18
740;BME280;354;42.694;23.336;2023-04-07T08:46:13;95079.47;;;10.07;49.61
740;BME280;354;42.694;23.336;2023-04-07T08:48:42;95079.63;;;10.93;49.13
740;BME280;354;42.694;23.336;2023-04-07T08:51:09;95073.31;;;11.74;46.27
740;BME280;354;42.694;23.336;2023-04-07T08:53:40;95050.47;;;12.17;46.17
740;BME280;354;42.694;23.336;2023-04-07T08:56:08;95085.69;;;12.22;45.01
740;BME280;354;42.694;23.336;2023-04-07T08:58:35;95080.38;;;12.52;44.34
740;BME280;354;42.694;23.336;2023-04-07T09:01:03;95082.00;;;12.53;43.50
740;BME280;354;42.694;23.336;2023-04-07T09:03:31;95081.41;;;12.63;43.44
740;BME280;354;42.694;23.336;2023-04-07T09:05:59;95047.22;;;12.56;44.63
740;BME280;354;42.694;23.336;2023-04-07T09:08:25;95083.13;;;12.57;43.00
740;BME280;354;42.694;23.336;2023-04-07T09:10:51;95080.41;;;11.92;43.71
740;BME280;354;42.694;23.336;2023-04-07T09:13:16;95082.94;;;10.89;44.81
740;BME280;354;42.694;23.336;2023-04-07T09:15:42;95068.59;;;10.60;45.44
740;BME280;354;42.694;23.336;2023-04-07T09:18:07;95072.28;;;11.02;45.51
740;BME280;354;42.694;23.336;2023-04-07T09:25:53;95086.97;;;12.01;43.91
740;BME280;354;42.694;23.336;2023-04-07T09:28:19;95087.47;;;11.43;43.98
740;BME280;354;42.694;23.336;2023-04-07T09:30:52;95070.47;;;11.39;44.36
740;BME280;354;42.694;23.336;2023-04-07T09:33:26;95074.16;;;11.38;44.59
740;BME280;354;42.694;23.336;2023-04-07T09:35:51;95067.13;;;11.87;44.32
740;BME280;354;42.694;23.336;2023-04-07T09:38:17;95060.16;;;11.56;44.08
740;BME280;354;42.694;23.336;2023-04-07T09:40:42;95081.75;;;12.13;44.21
740;BME280;354;42.694;23.336;2023-04-07T09:43:14;95090.06;;;12.82;43.04
740;BME280;354;42.694;23.336;2023-04-07T09:45:40;95089.03;;;11.99;43.12
740;BME280;354;42.694;23.336;2023-04-07T09:48:07;95071.47;;;11.75;43.16
740;BME280;354;42.694;23.336;2023-04-07T09:50:33;95090.50;;;11.77;44.46
740;BME280;354;42.694;23.336;2023-04-07T09:52:59;95083.50;;;11.89;43.69
740;BME280;354;42.694;23.336;2023-04-07T09:55:27;95078.81;;;11.73;44.39
740;BME280;354;42.694;23.336;2023-04-07T09:57:53;95102.50;;;12.51;45.52
740;BME280;354;42.694;23.336;2023-04-07T10:00:22;95096.19;;;13.41;44.70
740;BME280;354;42.694;23.336;2023-04-07T10:02:48;95075.53;;;13.26;42.70
740;BME280;354;42.694;23.336;2023-04-07T10:05:16;95089.00;;;12.18;43.39
740;BME280;354;42.694;23.336;2023-04-07T10:07:42;95100.31;;;11.51;44.16
740;BME280;354;42.694;23.336;2023-04-07T10:10:08;95095.00;;;11.40;44.57
740;BME280;354;42.694;23.336;2023-04-07T10:12:36;95090.03;;;11.50;45.17
740;BME280;354;42.694;23.336;2023-04-07T10:15:02;95096.06;;;12.05;44.69
740;BME280;354;42.694;23.336;2023-04-07T10:17:28;95091.63;;;12.18;44.66
740;BME280;354;42.694;23.336;2023-04-07T10:19:57;95099.13;;;12.32;45.19
740;BME280;354;42.694;23.336;2023-04-07T10:22:24;95097.53;;;11.65;45.72
740;BME280;354;42.694;23.336;2023-04-07T10:24:59;95084.06;;;11.18;46.16
740;BME280;354;42.694;23.336;2023-04-07T10:27:32;95075.25;;;10.62;47.48
740;BME280;354;42.694;23.336;2023-04-07T10:29:58;95074.13;;;10.76;48.26
740;BME280;354;42.694;23.336;2023-04-07T10:32:24;95097.41;;;10.98;48.57
740;BME280;354;42.694;23.336;2023-04-07T10:37:17;95081.50;;;11.11;49.90
740;BME280;354;42.694;23.336;2023-04-07T10:39:45;95101.06;;;11.40;51.42
740;BME280;354;42.694;23.336;2023-04-07T10:45:02;95104.25;;;11.05;49.69
740;BME280;354;42.694;23.336;2023-04-07T10:47:28;95082.59;;;11.03;49.15
740;BME280;354;42.694;23.336;2023-04-07T10:50:14;95104.81;;;11.07;48.96
740;BME280;354;42.694;23.336;2023-04-07T10:52:40;95105.69;;;10.76;49.52
740;BME280;354;42.694;23.336;2023-04-07T10:58:28;95104.78;;;11.51;48.40
740;BME280;354;42.694;23.336;2023-04-07T11:03:37;95108.31;;;11.26;49.45
740;BME280;354;42.694;23.336;2023-04-07T11:06:08;95103.00;;;10.33;50.50
740;BME280;354;42.694;23.336;2023-04-07T11:08:35;95110.09;;;11.07;50.53
740;BME280;354;42.694;23.336;2023-04-07T11:11:01;95128.91;;;10.61;50.71
740;BME280;354;42.694;23.336;2023-04-07T11:13:27;95129.25;;;10.65;50.86
740;BME280;354;42.694;23.336;2023-04-07T11:15:53;95114.03;;;11.60;50.98
740;BME280;354;42.694;23.336;2023-04-07T11:18:20;95105.28;;;11.96;49.38
740;BME280;354;42.694;23.336;2023-04-07T11:20:55;95115.06;;;12.26;48.67
740;BME280;354;42.694;23.336;2023-04-07T11:23:23;95110.66;;;11.90;50.03
740;BME280;354;42.694;23.336;2023-04-07T11:25:51;95117.63;;;11.84;49.67
740;BME280;354;42.694;23.336;2023-04-07T11:28:17;95122.91;;;10.47;50.07
740;BME280;354;42.694;23.336;2023-04-07T11:30:53;95120.19;;;10.29;51.43
740;BME280;354;42.694;23.336;2023-04-07T11:33:20;95127.81;;;10.44;51.53
740;BME280;354;42.694;23.336;2023-04-07T11:35:51;95104.63;;;10.21;52.36
740;BME280;354;42.694;23.336;2023-04-07T11:38:18;95128.50;;;10.58;53.10
740;BME280;354;42.694;23.336;2023-04-07T11:40:45;95110.78;;;10.46;51.77
740;BME280;354;42.694;23.336;2023-04-07T11:43:26;95116.75;;;10.85;52.22
740;BME280;354;42.694;23.336;2023-04-07T11:46:13;95118.53;;;10.91;52.52
740;BME280;354;42.694;23.336;2023-04-07T11:48:41;95118.88;;;11.20;51.91
740;BME280;354;42.694;23.336;2023-04-07T11:51:18;95131.44;;;10.99;51.61
740;BME280;354;42.694;23.336;2023-04-07T11:53:45;95124.78;;;10.72;52.37
740;BME280;354;42.694;23.336;2023-04-07T11:56:15;95127.41;;;10.40;54.01
740;BME280;354;42.694;23.336;2023-04-07T11:58:48;95116.25;;;10.70;53.85
740;BME280;354;42.694;23.336;2023-04-07T12:01:14;95104.94;;;11.38;52.57
740;BME280;354;42.694;23.336;2023-04-07T12:03:55;95128.56;;;10.76;52.06
740;BME280;354;42.694;23.336;2023-04-07T12:08:58;95115.94;;;11.09;52.84
740;BME280;354;42.694;23.336;2023-04-07T12:11:24;95118.84;;;11.26;52.13
740;BME280;354;42.694;23.336;2023-04-07T12:13:51;95112.09;;;11.30;52.45
740;BME280;354;42.694;23.336;2023-04-07T12:16:17;95114.06;;;11.53;52.18
740;BME280;354;42.694;23.336;2023-04-07T12:18:43;95127.19;;;10.42;52.35
740;BME280;354;42.694;23.336;2023-04-07T12:21:08;95128.50;;;10.58;53.77
740;BME280;354;42.694;23.336;2023-04-07T12:23:34;95121.28;;;10.46;53.25
740;BME280;354;42.694;23.336;2023-04-07T12:26:00;95122.72;;;10.42;54.38
740;BME280;354;42.694;23.336;2023-04-07T12:28:26;95096.19;;;10.50;54.35
740;BME280;354;42.694;23.336;2023-04-07T12:30:51;95130.19;;;10.77;53.53
740;BME280;354;42.694;23.336;2023-04-07T12:33:17;95115.00;;;10.47;54.02
740;BME280;354;42.694;23.336;2023-04-07T12:35:43;95111.00;;;10.70;53.58
740;BME280;354;42.694;23.336;2023-04-07T12:38:08;95100.19;;;10.21;54.79
740;BME280;354;42.694;23.336;2023-04-07T12:40:33;95117.13;;;10.64;54.44
740;BME280;354;42.694;23.336;2023-04-07T12:43:00;95108.53;;;10.75;54.63
740;BME280;354;42.694;23.336;2023-04-07T12:45:26;95111.69;;;11.08;54.00
740;BME280;354;42.694;23.336;2023-04-07T12:47:51;95094.47;;;10.88;54.62
740;BME280;354;42.694;23.336;2023-04-07T12:50:17;95107.25;;;10.59;53.87
740;BME280;354;42.694;23.336;2023-04-07T12:52:42;95115.00;;;10.79;53.89
740;BME280;354;42.694;23.336;2023-04-07T12:55:08;95122.09;;;10.47;53.65
740;BME280;354;42.694;23.336;2023-04-07T12:57:33;95123.06;;;10.52;54.48
740;BME280;354;42.694;23.336;2023-04-07T12:59:59;95114.94;;;10.86;55.02
740;BME280;354;42.694;23.336;2023-04-07T13:02:24;95103.59;;;10.85;53.12
740;BME280;354;42.694;23.336;2023-04-07T13:04:49;95114.06;;;10.92;53.53
740;BME280;354;42.694;23.336;2023-04-07T13:07:15;95119.88;;;11.00;53.93
740;BME280;354;42.694;23.336;2023-04-07T13:09:41;95100.72;;;10.68;53.64
740;BME280;354;42.694;23.336;2023-04-07T13:12:10;95133.97;;;10.56;53.83
740;BME280;354;42.694;23.336;2023-04-07T13:14:40;95130.75;;;10.16;54.89
740;BME280;354;42.694;23.336;2023-04-07T13:17:07;95136.22;;;10.14;55.52
740;BME280;354;42.694;23.336;2023-04-07T13:19:33;95126.38;;;10.41;55.62
740;BME280;354;42.694;23.336;2023-04-07T13:21:59;95123.66;;;10.23;56.30
740;BME280;354;42.694;23.336;2023-04-07T13:24:24;95123.84;;;10.21;56.09
740;BME280;354;42.694;23.336;2023-04-07T13:26:51;95128.72;;;10.81;55.52
740;BME280;354;42.694;23.336;2023-04-07T13:29:16;95140.22;;;10.62;55.02
740;BME280;354;42.694;23.336;2023-04-07T13:31:44;95105.81;;;10.32;56.24
740;BME280;354;42.694;23.336;2023-04-07T13:34:10;95130.72;;;10.22;56.11
740;BME280;354;42.694;23.336;2023-04-07T13:36:36;95133.00;;;10.50;55.96
740;BME280;354;42.694;23.336;2023-04-07T13:39:01;95138.44;;;10.55;55.78
740;BME280;354;42.694;23.336;2023-04-07T13:41:27;95133.69;;;9.94;56.71
740;BME280;354;42.694;23.336;2023-04-07T13:43:52;95139.56;;;9.90;57.29
740;BME280;354;42.694;23.336;2023-04-07T13:46:18;95146.66;;;9.89;56.81
740;BME280;354;42.694;23.336;2023-04-07T13:48:46;95146.53;;;10.09;57.51
740;BME280;354;42.694;23.336;2023-04-07T13:51:11;95159.88;;;10.14;56.89
740;BME280;354;42.694;23.336;2023-04-07T13:53:37;95159.91;;;9.43;58.44
740;BME280;354;42.694;23.336;2023-04-07T13:56:02;95153.66;;;9.50;59.14
740;BME280;354;42.694;23.336;2023-04-07T13:58:30;95158.16;;;9.88;58.60